IN-0039 weather

Lebong Helipad
Lebong, West Bengal, India

Public forecast

Using degrees Celsius for public forecast. Weather courtesy of forecast.io.

METAR (pilot weather report)

Closest report is Bagdogra Airport, 22.9 nm (42.3 km) S. Retrieved 2019/09/18 08:30 UTC (0 seconds ago):

VEBD 180830Z VRB02KT 6000 SCT030 BKN100 32/24 Q1010 NOSIG

TAF (pilot weather forecast)

Closest forecast is Bagdogra Airport, 22.9 nm (42.3 km) S. Retrieved 2019/09/18 06:30 UTC (2 hours ago):

TAF VEBD 180330Z 1806/1818 10010KT 6000 SCT030 SCT090 TEMPO 1809/1812 FEW030TCU